Time;durP1;ratioP1;P1;durP2;ratioP2;P2;SDS_P1;SDS_P2;PMS_P1;PMS_P2;Temp;Humidity;BMP_temperature;BMP_pressure;BME280_temperature;BME280_humidity;BME280_pressure;Samples;Min_cycle;Max_cycle;Signal;HPM_P1;HPM_P2
2022/10/13 00:01:11;;;;;;;25.07;14.80;;;;;;;10.83;100.00;101790.59;5035573;28;20080;-86
2022/10/13 00:03:41;;;;;;;22.65;14.82;;;;;;;10.82;100.00;101791.63;5036009;28;20025;-86
2022/10/13 00:06:08;;;;;;;22.37;14.33;;;;;;;10.86;100.00;101783.97;5042053;28;20029;-86
2022/10/13 00:08:35;;;;;;;22.47;15.07;;;;;;;10.88;100.00;101784.59;5037198;28;20033;-86
2022/10/13 00:11:07;;;;;;;22.37;14.53;;;;;;;10.87;100.00;101775.63;5022842;28;20384;-86
2022/10/13 00:13:33;;;;;;;23.87;15.57;;;;;;;10.98;100.00;101785.13;5036753;28;20473;-86
2022/10/13 00:16:01;;;;;;;22.93;15.67;;;;;;;10.98;100.00;101783.25;5052489;28;20146;-86
2022/10/13 00:18:26;;;;;;;21.90;14.90;;;;;;;10.99;100.00;101770.56;5048880;28;20469;-86
2022/10/13 00:20:52;;;;;;;24.27;14.83;;;;;;;11.02;100.00;101770.16;5052897;28;20032;-86
2022/10/13 00:23:17;;;;;;;23.73;14.70;;;;;;;10.97;100.00;101751.78;5020413;28;20037;-85
2022/10/13 00:25:44;;;;;;;24.60;15.40;;;;;;;11.08;100.00;101763.13;5044532;28;20037;-86
2022/10/13 00:28:10;;;;;;;22.53;14.97;;;;;;;11.06;100.00;101765.22;5044038;28;20147;-86
2022/10/13 00:30:37;;;;;;;23.63;15.03;;;;;;;11.11;100.00;101769.00;5046759;28;20520;-86
2022/10/13 00:33:03;;;;;;;22.77;15.43;;;;;;;11.12;100.00;101772.56;5048096;28;20066;-86
2022/10/13 00:35:29;;;;;;;23.13;15.20;;;;;;;11.12;100.00;101759.84;5042648;28;20421;-86
2022/10/13 00:37:54;;;;;;;23.50;15.17;;;;;;;11.08;100.00;101769.41;5043847;28;20078;-86
2022/10/13 00:40:20;;;;;;;23.67;15.13;;;;;;;11.14;100.00;101763.19;5048032;28;20037;-87
2022/10/13 00:42:45;;;;;;;24.57;14.63;;;;;;;11.17;100.00;101758.44;5049133;28;20488;-86
2022/10/13 00:45:16;;;;;;;24.47;14.57;;;;;;;11.17;100.00;101761.97;5046595;28;20051;-86
2022/10/13 00:47:48;;;;;;;22.57;15.03;;;;;;;11.14;100.00;101762.38;5041235;28;20413;-86
2022/10/13 00:50:18;;;;;;;22.73;14.90;;;;;;;11.12;100.00;101768.00;5034951;28;20488;-86
2022/10/13 00:52:46;;;;;;;22.50;14.80;;;;;;;11.11;99.96;101760.03;5024850;28;21286;-85
2022/10/13 00:55:16;;;;;;;23.60;15.87;;;;;;;11.11;99.98;101762.72;5043204;28;20087;-85
2022/10/13 00:57:44;;;;;;;23.47;15.47;;;;;;;11.09;99.73;101760.22;5036167;28;20033;-85
2022/10/13 01:00:11;;;;;;;25.50;16.67;;;;;;;11.12;100.00;101753.56;5044309;28;20033;-85
2022/10/13 01:02:37;;;;;;;27.17;17.33;;;;;;;11.10;99.84;101747.50;5038780;28;20013;-86
2022/10/13 01:05:04;;;;;;;26.00;16.40;;;;;;;11.18;99.77;101757.38;5033982;28;20025;-85
2022/10/13 01:07:30;;;;;;;26.13;16.97;;;;;;;11.17;99.86;101758.44;5022126;28;20301;-86
2022/10/13 01:09:56;;;;;;;22.77;14.53;;;;;;;11.24;99.50;101762.88;5052599;28;20041;-85
2022/10/13 01:13:02;;;;;;;26.53;16.47;;;;;;;11.31;99.29;101752.94;5046935;28;20060;-85
2022/10/13 01:15:40;;;;;;;24.07;15.40;;;;;;;11.28;99.13;101747.88;4956585;28;20122;-86
2022/10/13 01:18:43;;;;;;;24.97;15.63;;;;;;;11.32;99.10;101764.63;5044073;28;20025;-86
2022/10/13 01:21:21;;;;;;;24.93;15.27;;;;;;;11.30;99.07;101761.25;5037473;28;20036;-86
2022/10/13 01:24:15;;;;;;;22.73;14.30;;;;;;;11.33;98.88;101750.03;5036369;28;20076;-86
2022/10/13 01:26:55;;;;;;;28.67;15.83;;;;;;;11.35;98.64;101756.09;5035432;28;20366;-86
2022/10/13 01:29:54;;;;;;;24.90;14.43;;;;;;;11.37;98.70;101755.88;5042297;28;20025;-87
2022/10/13 01:32:43;;;;;;;24.63;14.73;;;;;;;11.43;98.00;101757.84;5018978;28;20076;-87
2022/10/13 01:35:13;;;;;;;28.63;16.40;;;;;;;11.47;97.84;101750.97;5032172;28;20045;-86
2022/10/13 01:38:08;;;;;;;26.47;15.77;;;;;;;11.47;98.09;101753.69;5033097;28;20041;-86
2022/10/13 01:40:35;;;;;;;27.35;15.85;;;;;;;11.50;98.01;101750.59;5023472;28;20094;-86
2022/10/13 01:43:13;;;;;;;22.67;14.77;;;;;;;11.57;98.04;101748.78;5053702;28;20037;-87
2022/10/13 01:45:52;;;;;;;23.80;14.53;;;;;;;11.55;97.59;101737.28;5053880;28;20029;-86
2022/10/13 01:48:19;;;;;;;25.43;15.13;;;;;;;11.54;98.19;101737.47;5052237;28;20032;-87
2022/10/13 01:50:47;;;;;;;25.97;15.80;;;;;;;11.62;97.82;101749.00;5004337;28;20401;-86
2022/10/13 01:53:14;;;;;;;25.47;14.77;;;;;;;11.57;97.79;101735.22;5053806;28;20037;-87
2022/10/13 01:55:56;;;;;;;24.07;14.67;;;;;;;11.67;97.88;101740.28;5036214;28;20045;-87
2022/10/13 01:58:25;;;;;;;24.47;14.40;;;;;;;11.62;97.59;101731.91;5052347;28;20380;-87
2022/10/13 02:01:04;;;;;;;26.27;14.80;;;;;;;11.66;97.64;101734.00;5038729;28;20025;-86
2022/10/13 02:03:42;;;;;;;24.80;14.40;;;;;;;11.79;97.00;101732.41;5033683;28;20032;-87
2022/10/13 02:06:28;;;;;;;26.20;15.10;;;;;;;11.73;97.60;101722.38;5049195;28;20032;-86
2022/10/13 02:09:02;;;;;;;27.10;16.30;;;;;;;11.69;98.20;101723.81;5028356;28;20025;-86
2022/10/13 02:11:27;;;;;;;28.17;15.73;;;;;;;11.61;97.92;101701.22;5039138;28;20176;-86
2022/10/13 02:14:21;;;;;;;24.83;15.47;;;;;;;11.75;97.95;101717.56;5014194;28;20112;-87
2022/10/13 02:16:48;;;;;;;26.90;15.43;;;;;;;11.71;97.69;101716.28;5014043;28;20025;-86
2022/10/13 02:19:16;;;;;;;28.80;16.10;;;;;;;11.69;98.07;101715.66;5020497;28;20033;-85
2022/10/13 02:21:42;;;;;;;28.83;14.70;;;;;;;11.72;97.91;101717.97;5042755;28;20032;-86
2022/10/13 02:24:08;;;;;;;23.30;14.60;;;;;;;11.69;98.20;101710.22;5053124;28;20104;-86
2022/10/13 02:26:35;;;;;;;27.33;15.77;;;;;;;11.69;97.99;101710.22;5022440;28;20048;-86
2022/10/13 02:29:08;;;;;;;27.10;16.13;;;;;;;11.63;98.42;101707.25;5014420;28;20091;-86
2022/10/13 02:31:33;;;;;;;24.53;15.67;;;;;;;11.66;98.21;101706.03;5016147;28;20376;-86
2022/10/13 02:33:59;;;;;;;28.60;17.23;;;;;;;11.64;98.00;101699.94;5032333;28;20029;-87
2022/10/13 02:36:24;;;;;;;27.57;16.50;;;;;;;11.59;98.88;101697.84;5033475;28;20104;-86
2022/10/13 02:38:49;;;;;;;27.63;16.87;;;;;;;11.57;98.98;101694.50;5042295;28;20079;-86
2022/10/13 02:41:15;;;;;;;26.17;16.03;;;;;;;11.54;99.31;101694.88;5024589;28;20029;-87
2022/10/13 02:43:40;;;;;;;26.23;16.30;;;;;;;11.58;98.87;101692.63;5032200;28;20037;-87
2022/10/13 02:46:05;;;;;;;26.27;16.10;;;;;;;11.57;99.16;101696.34;5032677;28;20037;-86
2022/10/13 02:48:31;;;;;;;27.17;16.80;;;;;;;11.52;99.62;101687.97;5047424;28;20036;-87
2022/10/13 02:50:56;;;;;;;26.70;15.53;;;;;;;11.57;99.21;101688.22;5042853;28;20061;-86
2022/10/13 02:53:22;;;;;;;23.80;14.80;;;;;;;11.59;99.24;101694.31;5039393;28;20032;-86
2022/10/13 02:55:47;;;;;;;24.20;14.83;;;;;;;11.61;99.26;101690.34;5012015;28;20029;-86
2022/10/13 02:58:13;;;;;;;24.83;14.30;;;;;;;11.60;99.05;101694.09;5008539;28;20087;-86
2022/10/13 03:00:38;;;;;;;25.23;14.10;;;;;;;11.64;99.24;101687.22;5034461;28;20091;-87
2022/10/13 03:03:04;;;;;;;24.47;14.47;;;;;;;11.64;99.13;101668.22;5012524;28;20025;-88
2022/10/13 03:05:29;;;;;;;25.50;15.40;;;;;;;11.65;99.10;101683.50;5035815;28;20028;-89
2022/10/13 03:07:55;;;;;;;29.97;16.47;;;;;;;11.62;99.39;101673.00;5023432;28;22701;-88
2022/10/13 03:10:20;;;;;;;25.80;15.73;;;;;;;11.68;99.27;101675.97;5033293;28;20111;-87
2022/10/13 03:12:45;;;;;;;27.23;15.67;;;;;;;11.71;98.86;101670.13;5038571;28;20029;-85
2022/10/13 03:15:11;;;;;;;25.80;16.07;;;;;;;11.66;98.94;101668.84;5007861;28;22521;-86
2022/10/13 03:17:36;;;;;;;26.50;16.10;;;;;;;11.70;99.09;101673.91;5024023;28;20029;-86
2022/10/13 03:20:03;;;;;;;26.03;16.53;;;;;;;11.69;98.62;101664.91;5027236;28;20040;-86
2022/10/13 03:22:31;;;;;;;26.93;16.17;;;;;;;11.66;99.27;101665.31;5007988;28;20388;-88
2022/10/13 03:24:56;;;;;;;25.67;15.03;;;;;;;11.67;99.01;101667.00;5031495;28;20041;-88
2022/10/13 03:27:22;;;;;;;29.37;16.60;;;;;;;11.65;98.78;101655.50;5034497;28;20055;-88
2022/10/13 03:29:47;;;;;;;27.67;16.33;;;;;;;11.64;99.04;101664.66;5006969;28;20587;-86
2022/10/13 03:32:12;;;;;;;25.70;14.73;;;;;;;11.64;99.21;101662.81;5004568;28;20037;-86
2022/10/13 03:34:38;;;;;;;27.00;13.93;;;;;;;11.80;98.37;101668.94;5034137;28;20030;-86
2022/10/13 03:37:03;;;;;;;20.37;12.30;;;;;;;11.83;97.76;101665.81;5036766;28;20450;-87
2022/10/13 03:39:29;;;;;;;22.27;12.67;;;;;;;11.80;98.26;101663.50;5045021;28;20465;-86
2022/10/13 03:41:54;;;;;;;23.17;13.60;;;;;;;11.86;96.74;101651.00;5016438;28;20121;-85
2022/10/13 03:44:19;;;;;;;23.47;12.97;;;;;;;11.85;97.71;101658.31;5021007;28;20469;-86
2022/10/13 03:46:45;;;;;;;20.30;12.77;;;;;;;11.88;97.46;101657.91;5034701;28;20508;-86
2022/10/13 03:49:10;;;;;;;23.57;13.53;;;;;;;11.90;97.36;101664.00;5040462;28;20030;-87
2022/10/13 03:51:35;;;;;;;25.03;13.47;;;;;;;11.90;97.62;101655.84;5035465;28;20021;-87
2022/10/13 03:54:01;;;;;;;23.30;13.53;;;;;;;11.92;97.57;101650.22;5034970;28;20077;-87
2022/10/13 03:56:27;;;;;;;23.50;14.43;;;;;;;11.91;97.53;101643.09;5054748;28;20029;-88
2022/10/13 03:58:57;;;;;;;25.10;14.73;;;;;;;11.97;97.16;101648.59;5021778;28;20036;-86
2022/10/13 04:01:25;;;;;;;23.37;14.43;;;;;;;11.91;97.32;101643.97;5035830;28;20048;-86
2022/10/13 04:03:53;;;;;;;25.37;13.70;;;;;;;11.90;96.90;101642.28;5035320;28;20483;-86
2022/10/13 04:06:19;;;;;;;24.33;13.53;;;;;;;11.94;96.84;101640.88;5036241;28;20029;-86
2022/10/13 04:08:44;;;;;;;24.47;14.20;;;;;;;11.95;97.07;101638.97;5045459;28;20047;-86
2022/10/13 04:11:13;;;;;;;24.80;14.47;;;;;;;11.97;96.70;101636.91;5053292;28;20116;-87
2022/10/13 04:13:39;;;;;;;25.10;14.33;;;;;;;11.96;97.41;101640.66;5022312;28;20028;-87
2022/10/13 04:16:16;;;;;;;21.73;13.90;;;;;;;12.04;96.20;101632.34;5037382;28;20029;-87
2022/10/13 04:18:43;;;;;;;21.60;13.70;;;;;;;11.96;96.88;101624.38;5047427;28;20040;-87
2022/10/13 04:21:10;;;;;;;22.00;13.77;;;;;;;11.97;96.79;101629.59;5036336;28;20087;-87
2022/10/13 04:23:36;;;;;;;24.30;13.87;;;;;;;12.01;96.72;101640.03;5021423;28;20060;-86
2022/10/13 04:26:03;;;;;;;25.03;14.17;;;;;;;12.02;96.54;101639.00;5034855;28;20141;-87
2022/10/13 04:28:28;;;;;;;22.40;13.80;;;;;;;11.99;96.43;101621.25;5036413;28;20124;-87
2022/10/13 04:30:54;;;;;;;24.93;14.93;;;;;;;12.00;96.74;101633.78;5052458;28;20459;-87
2022/10/13 04:33:19;;;;;;;23.93;13.87;;;;;;;11.99;96.93;101621.25;5048400;28;20030;-86
2022/10/13 04:35:44;;;;;;;21.83;13.03;;;;;;;11.98;96.44;101612.25;5038086;28;20028;-87
2022/10/13 04:38:10;;;;;;;20.87;12.57;;;;;;;11.98;96.69;101617.69;5038036;28;20331;-87
2022/10/13 04:40:35;;;;;;;20.27;12.10;;;;;;;12.05;96.96;101622.31;5054779;28;20064;-87
2022/10/13 04:43:01;;;;;;;22.17;13.67;;;;;;;12.02;97.08;101609.97;5055017;28;20460;-87
2022/10/13 04:45:26;;;;;;;25.37;14.07;;;;;;;11.93;98.05;101613.88;5049337;28;20033;-87
2022/10/13 04:47:52;;;;;;;24.77;14.27;;;;;;;11.99;97.33;101619.38;5041929;28;20104;-87
2022/10/13 04:50:18;;;;;;;25.87;13.70;;;;;;;11.95;97.55;101612.69;5045943;28;20037;-86
2022/10/13 04:52:43;;;;;;;22.17;14.23;;;;;;;11.97;97.79;101620.63;5034726;28;20052;-87
2022/10/13 04:55:09;;;;;;;23.23;13.33;;;;;;;11.99;97.46;101622.09;5034769;28;20032;-87
2022/10/13 04:57:34;;;;;;;22.90;13.53;;;;;;;11.91;97.47;101603.22;5034805;28;20037;-87
2022/10/13 04:59:59;;;;;;;27.43;15.93;;;;;;;11.91;97.78;101610.53;5034749;28;20025;-87
2022/10/13 05:02:25;;;;;;;23.90;13.93;;;;;;;11.94;98.00;101616.44;5033740;28;20025;-87
2022/10/13 05:04:50;;;;;;;24.63;13.80;;;;;;;11.83;98.05;101611.50;5046858;28;20107;-86
2022/10/13 05:07:16;;;;;;;22.50;12.57;;;;;;;11.88;98.15;101619.91;5043993;28;20026;-87
2022/10/13 05:09:41;;;;;;;22.17;13.00;;;;;;;11.90;97.88;101631.41;5040848;28;20415;-87
2022/10/13 05:12:06;;;;;;;20.27;12.80;;;;;;;11.86;97.96;101621.13;5053567;28;20028;-87
2022/10/13 05:14:32;;;;;;;23.37;13.07;;;;;;;11.84;98.34;101610.47;5052108;28;20036;-87
2022/10/13 05:16:58;;;;;;;20.77;13.03;;;;;;;11.86;97.98;101603.00;5048199;28;20213;-86
2022/10/13 05:19:23;;;;;;;21.50;13.10;;;;;;;11.82;98.22;101588.16;5034019;28;20029;-87
2022/10/13 05:21:49;;;;;;;23.57;13.30;;;;;;;11.80;98.63;101588.34;5041360;28;20112;-86
2022/10/13 05:24:15;;;;;;;20.70;12.43;;;;;;;11.79;98.71;101607.53;5053583;28;20032;-87
2022/10/13 05:26:41;;;;;;;22.87;13.77;;;;;;;11.79;98.88;101621.09;5016194;28;20045;-86
2022/10/13 05:29:06;;;;;;;24.17;13.53;;;;;;;11.82;98.73;101618.84;5033896;28;20633;-86
2022/10/13 05:31:33;;;;;;;21.83;12.90;;;;;;;11.77;98.83;101620.47;5020637;28;20109;-86
2022/10/13 05:34:00;;;;;;;23.33;13.47;;;;;;;11.74;98.96;101615.47;4996290;28;20030;-86
2022/10/13 05:36:31;;;;;;;21.37;12.53;;;;;;;11.78;98.92;101630.31;5012462;28;20029;-86
2022/10/13 05:38:59;;;;;;;21.83;13.63;;;;;;;11.70;99.08;101611.47;5014180;28;20022;-86
2022/10/13 05:41:26;;;;;;;21.93;13.27;;;;;;;11.71;99.12;101621.28;5017740;28;20021;-86
2022/10/13 05:43:57;;;;;;;19.77;13.20;;;;;;;11.73;99.31;101621.91;5019773;28;20049;-86
2022/10/13 05:46:23;;;;;;;22.43;13.50;;;;;;;11.72;99.36;101622.97;5034007;28;20057;-86
2022/10/13 05:48:49;;;;;;;21.07;13.40;;;;;;;11.75;98.87;101625.25;5017105;28;20060;-86
2022/10/13 05:51:46;;;;;;;23.53;14.13;;;;;;;11.78;99.18;101622.16;5013548;28;20482;-86
2022/10/13 05:54:20;;;;;;;22.93;14.40;;;;;;;11.73;99.07;101620.03;5001734;28;20394;-86
2022/10/13 05:56:55;;;;;;;22.88;13.60;;;;;;;11.71;99.27;101613.97;5013534;28;20478;-86
2022/10/13 05:59:23;;;;;;;21.37;14.10;;;;;;;11.69;99.22;101607.91;5012990;28;20033;-86
2022/10/13 06:01:50;;;;;;;26.47;14.93;;;;;;;11.70;99.51;101608.75;5010184;28;20022;-86
2022/10/13 06:04:23;;;;;;;24.23;15.10;;;;;;;11.68;99.53;101606.22;5013241;28;20378;-87
2022/10/13 06:06:48;;;;;;;26.17;15.93;;;;;;;11.69;99.80;101609.78;5011022;28;20040;-86
2022/10/13 06:09:14;;;;;;;25.87;16.73;;;;;;;11.69;99.66;101607.06;5007140;28;20046;-87
2022/10/13 06:11:40;;;;;;;22.47;14.43;;;;;;;11.65;99.37;101593.91;5001583;28;20081;-86
2022/10/13 06:14:05;;;;;;;26.97;15.87;;;;;;;11.72;99.48;101610.25;5001992;28;20052;-86
2022/10/13 06:16:30;;;;;;;26.60;17.30;;;;;;;11.65;99.99;101602.06;5001568;28;20034;-87
2022/10/13 06:18:56;;;;;;;23.87;15.57;;;;;;;11.63;100.00;101595.97;5001922;28;21194;-87
2022/10/13 06:21:21;;;;;;;23.20;14.10;;;;;;;11.65;99.72;101601.19;5002003;28;21486;-86
2022/10/13 06:23:47;;;;;;;23.60;14.83;;;;;;;11.62;99.78;101598.91;5002100;28;20033;-87
2022/10/13 06:26:12;;;;;;;23.73;14.70;;;;;;;11.70;99.23;101593.31;5014353;28;20421;-87
2022/10/13 06:28:37;;;;;;;21.97;13.97;;;;;;;11.61;99.55;101584.50;5026624;28;20049;-87
2022/10/13 06:31:05;;;;;;;22.07;14.43;;;;;;;11.61;99.64;101589.06;5009003;28;20045;-87
2022/10/13 06:33:31;;;;;;;25.27;14.97;;;;;;;11.66;100.00;101595.56;5000178;28;20533;-87
2022/10/13 06:36:01;;;;;;;24.43;15.33;;;;;;;11.68;100.00;101597.25;5026485;28;20047;-87
2022/10/13 06:38:26;;;;;;;23.97;15.10;;;;;;;11.70;99.44;101587.88;5030587;28;20045;-86
2022/10/13 06:40:51;;;;;;;25.03;15.27;;;;;;;11.72;99.44;101590.38;5030580;28;20436;-86
2022/10/13 06:43:17;;;;;;;22.97;15.97;;;;;;;11.69;99.62;101580.75;5030766;28;20401;-87
2022/10/13 06:45:42;;;;;;;25.93;16.53;;;;;;;11.74;99.86;101593.75;5008293;28;20355;-86
2022/10/13 06:48:07;;;;;;;27.40;16.90;;;;;;;11.74;99.93;101593.75;5029736;28;20482;-87
2022/10/13 06:50:33;;;;;;;27.93;16.90;;;;;;;11.75;100.00;101590.81;5029362;28;20398;-88
2022/10/13 06:52:58;;;;;;;28.00;17.80;;;;;;;11.80;99.51;101599.22;5030089;28;20499;-90
2022/10/13 06:55:24;;;;;;;24.53;15.80;;;;;;;11.88;99.47;101594.63;5030508;28;20172;-90
2022/10/13 06:57:49;;;;;;;26.17;16.43;;;;;;;11.88;98.87;101583.78;5030529;28;20038;-90
2022/10/13 07:00:15;;;;;;;25.23;15.80;;;;;;;11.88;99.06;101584.59;5008218;28;21549;-89
2022/10/13 07:02:40;;;;;;;25.27;15.97;;;;;;;11.95;98.95;101593.66;5019856;28;20037;-86
2022/10/13 07:05:06;;;;;;;29.97;17.27;;;;;;;11.92;99.13;101594.00;5029816;28;20171;-87
2022/10/13 07:07:31;;;;;;;24.27;15.87;;;;;;;11.90;98.90;101581.69;5028968;28;20481;-87
2022/10/13 07:09:56;;;;;;;24.80;15.00;;;;;;;11.95;98.36;101590.09;5030354;28;20041;-86
2022/10/13 07:12:22;;;;;;;24.30;15.17;;;;;;;11.92;98.50;101595.91;5030545;28;20068;-86
2022/10/13 07:14:47;;;;;;;26.23;15.57;;;;;;;11.90;98.66;101590.69;5029603;28;20041;-87
2022/10/13 07:17:13;;;;;;;24.10;14.80;;;;;;;11.93;98.69;101592.97;5029515;28;20040;-86
2022/10/13 07:19:38;;;;;;;26.00;16.00;;;;;;;11.92;98.45;101594.00;5032326;28;20052;-87
2022/10/13 07:22:03;;;;;;;24.80;16.47;;;;;;;11.93;98.75;101586.72;5036593;28;20476;-86
2022/10/13 07:24:29;;;;;;;27.37;16.60;;;;;;;11.94;98.74;101591.97;5011415;28;20405;-86
2022/10/13 07:26:54;;;;;;;24.93;14.80;;;;;;;11.90;98.93;101576.25;5031594;28;20123;-86
2022/10/13 07:29:20;;;;;;;24.00;15.90;;;;;;;11.98;98.79;101601.41;4999934;28;20173;-87
2022/10/13 07:32:02;;;;;;;25.37;16.57;;;;;;;12.02;98.64;101601.81;5016814;28;20037;-86
2022/10/13 07:34:27;;;;;;;25.77;15.63;;;;;;;12.03;98.55;101605.38;5003480;28;20040;-86
2022/10/13 07:36:52;;;;;;;25.33;15.10;;;;;;;12.03;98.83;101608.09;5000649;28;20043;-87
2022/10/13 07:39:18;;;;;;;23.57;15.77;;;;;;;11.98;98.47;101595.13;5027721;28;20047;-87
2022/10/13 07:41:43;;;;;;;27.13;16.47;;;;;;;12.01;98.68;101599.31;5001442;28;20037;-87
2022/10/13 07:44:08;;;;;;;25.53;16.30;;;;;;;12.05;98.99;101595.13;5028159;28;20037;-87
2022/10/13 07:46:34;;;;;;;27.20;16.30;;;;;;;12.03;98.77;101597.25;4988854;28;20381;-87
2022/10/13 07:48:59;;;;;;;27.10;16.47;;;;;;;12.06;98.99;101596.81;5000759;28;20393;-87
2022/10/13 07:51:24;;;;;;;26.63;16.87;;;;;;;12.06;98.52;101594.09;5027858;28;20032;-86
2022/10/13 07:53:50;;;;;;;28.33;17.67;;;;;;;12.07;98.42;101584.94;5005782;28;20151;-86
2022/10/13 07:56:16;;;;;;;29.03;17.70;;;;;;;12.08;98.73;101598.28;5027343;28;20120;-87
2022/10/13 07:58:44;;;;;;;26.03;17.53;;;;;;;12.14;98.68;101589.34;5025913;28;20053;-86
2022/10/13 08:01:10;;;;;;;28.13;16.37;;;;;;;12.19;98.71;101591.44;5008130;28;20040;-86
2022/10/13 08:03:35;;;;;;;24.50;16.37;;;;;;;12.23;97.70;101592.72;5027120;28;20049;-87
2022/10/13 08:06:02;;;;;;;25.50;16.10;;;;;;;12.24;97.78;101598.97;5026890;28;20476;-87
2022/10/13 08:08:29;;;;;;;25.20;16.40;;;;;;;12.29;97.21;101600.06;5014513;28;21111;-88
2022/10/13 08:10:59;;;;;;;25.07;16.37;;;;;;;12.42;96.97;101601.13;5021847;28;20044;-87
2022/10/13 08:13:24;;;;;;;25.33;16.70;;;;;;;12.38;97.03;101597.16;5022230;28;20043;-87
2022/10/13 08:15:50;;;;;;;26.53;16.07;;;;;;;12.40;96.77;101587.75;5021722;28;20610;-86
2022/10/13 08:18:15;;;;;;;28.67;16.97;;;;;;;12.43;96.65;101581.03;4997201;28;20037;-86
2022/10/13 08:20:42;;;;;;;25.90;16.83;;;;;;;12.53;96.44;101596.97;5022456;28;20385;-87
2022/10/13 08:23:07;;;;;;;27.70;16.27;;;;;;;12.57;96.57;101592.78;5026438;28;20472;-87
2022/10/13 08:25:40;;;;;;;26.97;15.90;;;;;;;12.58;96.06;101587.16;5027520;28;20176;-87
2022/10/13 08:28:15;;;;;;;27.63;16.50;;;;;;;12.66;95.47;101595.09;5025878;28;20102;-87
2022/10/13 08:30:40;;;;;;;26.33;16.03;;;;;;;12.70;95.17;101583.78;5027360;28;20060;-87
2022/10/13 08:33:06;;;;;;;25.40;15.90;;;;;;;12.73;95.25;101586.09;4999897;28;20784;-86
2022/10/13 08:35:31;;;;;;;25.40;16.17;;;;;;;12.77;95.21;101573.75;5027820;28;20120;-87
2022/10/13 08:37:57;;;;;;;23.20;15.50;;;;;;;12.83;94.45;101584.63;5026294;28;20075;-87
2022/10/13 08:40:23;;;;;;;22.57;15.83;;;;;;;12.89;94.16;101576.69;5026607;28;20033;-87
2022/10/13 08:42:48;;;;;;;25.30;15.67;;;;;;;12.94;93.75;101585.06;5026359;28;20036;-87
2022/10/13 08:45:22;;;;;;;21.93;14.77;;;;;;;12.90;93.70;101575.66;5016432;28;20478;-87
2022/10/13 08:48:04;;;;;;;24.35;15.25;;;;;;;12.94;93.40;101582.34;5007980;28;20381;-88
2022/10/13 08:50:38;;;;;;;24.30;15.40;;;;;;;12.91;93.32;101569.19;5025727;28;20049;-87
2022/10/13 08:53:24;;;;;;;25.40;15.53;;;;;;;13.00;93.43;101582.34;5025769;28;20131;-86
2022/10/13 08:56:13;;;;;;;25.70;15.03;;;;;;;13.06;92.46;101575.22;4999405;28;20583;-87
2022/10/13 08:58:41;;;;;;;25.53;15.00;;;;;;;13.13;91.61;101570.59;5024798;28;20428;-86
2022/10/13 09:01:09;;;;;;;24.13;15.30;;;;;;;13.18;92.30;101587.13;5024811;28;20033;-86
2022/10/13 09:03:48;;;;;;;22.30;14.17;;;;;;;13.17;91.74;101573.75;5025611;28;20427;-88
2022/10/13 09:06:27;;;;;;;25.03;14.87;;;;;;;13.24;92.15;101588.19;5027024;28;20860;-86
2022/10/13 09:09:05;;;;;;;23.97;15.20;;;;;;;13.28;92.28;101581.25;5025674;28;20068;-87
2022/10/13 09:11:37;;;;;;;22.83;14.97;;;;;;;13.32;92.23;101578.97;5028871;28;20028;-86
2022/10/13 09:14:05;;;;;;;24.00;14.57;;;;;;;13.31;91.83;101569.97;5029992;28;20063;-86
2022/10/13 09:16:42;;;;;;;24.60;14.93;;;;;;;13.34;92.82;101571.41;5031338;28;20024;-86
2022/10/13 09:19:28;;;;;;;24.30;14.43;;;;;;;13.41;91.64;101574.16;5033083;28;20026;-86
2022/10/13 09:22:14;;;;;;;22.63;14.53;;;;;;;13.41;91.81;101572.28;5044776;28;20025;-86
2022/10/13 09:24:40;;;;;;;23.80;14.90;;;;;;;13.41;92.05;101568.69;5035368;28;20476;-86
2022/10/13 09:27:15;;;;;;;25.10;15.10;;;;;;;13.43;91.70;101569.34;5009379;28;20037;-86
2022/10/13 09:29:43;;;;;;;25.53;14.97;;;;;;;13.38;91.35;101560.97;5036666;28;20054;-87
2022/10/13 09:32:19;;;;;;;22.33;14.70;;;;;;;13.39;90.75;101570.81;5048984;28;20032;-87
2022/10/13 09:34:45;;;;;;;22.33;13.73;;;;;;;13.39;90.71;101568.09;5044854;28;20059;-86
2022/10/13 09:37:23;;;;;;;26.57;15.53;;;;;;;13.34;91.44;101560.53;5048993;28;20032;-86
2022/10/13 09:40:12;;;;;;;26.07;14.87;;;;;;;13.44;91.57;101571.84;5036107;28;20354;-86
2022/10/13 09:42:38;;;;;;;25.33;15.60;;;;;;;13.40;92.07;101565.16;5029033;28;20053;-86
2022/10/13 09:45:15;;;;;;;20.93;14.13;;;;;;;13.36;92.00;101558.47;5051679;28;20044;-86
2022/10/13 09:47:49;;;;;;;27.47;15.07;;;;;;;13.39;91.94;101549.03;5049025;28;20036;-86
2022/10/13 09:50:17;;;;;;;25.98;15.02;;;;;;;13.38;91.10;101563.69;5036974;28;20036;-86
2022/10/13 09:52:44;;;;;;;26.23;15.20;;;;;;;13.39;91.75;101559.94;5039602;28;20078;-87
2022/10/13 09:55:28;;;;;;;23.93;14.33;;;;;;;13.41;91.32;101560.53;5045553;28;20040;-86
2022/10/13 09:57:55;;;;;;;23.67;14.80;;;;;;;13.39;91.45;101558.03;5044137;28;20426;-87
2022/10/13 10:00:26;;;;;;;24.57;14.40;;;;;;;13.38;91.43;101560.97;5035094;28;20071;-86
2022/10/13 10:02:58;;;;;;;23.77;14.97;;;;;;;13.37;91.66;101556.56;5031010;28;20025;-86
2022/10/13 10:05:25;;;;;;;25.20;15.47;;;;;;;13.37;91.67;101556.56;5027277;28;20072;-86
2022/10/13 10:07:51;;;;;;;25.03;15.63;;;;;;;13.34;91.78;101561.38;5023077;28;20018;-86
2022/10/13 10:10:32;;;;;;;30.33;17.37;;;;;;;13.37;91.48;101560.16;5036034;28;20107;-86
2022/10/13 10:12:58;;;;;;;27.47;16.17;;;;;;;13.31;91.77;101545.47;5041273;28;20108;-86
2022/10/13 10:15:35;;;;;;;26.00;16.13;;;;;;;13.33;91.52;101553.44;5018476;28;21397;-87
2022/10/13 10:18:10;;;;;;;26.40;15.83;;;;;;;13.30;93.59;101548.38;5031773;28;20036;-87
2022/10/13 10:20:35;;;;;;;26.27;16.47;;;;;;;13.17;94.38;101549.25;5032924;28;20040;-87
2022/10/13 10:23:11;;;;;;;24.27;16.33;;;;;;;13.14;95.84;101546.97;5033348;28;20034;-87
2022/10/13 10:25:42;;;;;;;24.13;16.17;;;;;;;13.13;94.73;101545.28;5032693;28;20036;-87
2022/10/13 10:28:13;;;;;;;25.23;16.43;;;;;;;13.04;96.25;101554.72;5032508;28;20049;-88
2022/10/13 10:31:09;;;;;;;24.33;17.33;;;;;;;13.03;96.84;101547.59;5033583;28;20117;-86
2022/10/13 10:33:40;;;;;;;24.27;17.47;;;;;;;12.96;97.61;101550.31;5032497;28;20453;-86
2022/10/13 10:36:17;;;;;;;25.13;16.37;;;;;;;12.86;97.61;101550.75;5007808;28;20077;-87
2022/10/13 10:38:50;;;;;;;24.43;16.23;;;;;;;12.74;98.38;101541.56;5031195;28;20029;-87
2022/10/13 10:41:57;;;;;;;25.93;16.90;;;;;;;12.77;99.19;101550.13;5033775;28;20733;-87
2022/10/13 10:44:46;;;;;;;22.63;16.20;;;;;;;12.66;100.00;101548.03;5024143;28;20058;-87
2022/10/13 10:47:23;;;;;;;23.57;16.20;;;;;;;12.70;100.00;101545.72;5033148;28;20051;-87
2022/10/13 10:49:53;;;;;;;24.67;16.63;;;;;;;12.62;100.00;101541.31;5032437;28;20040;-87
2022/10/13 10:52:29;;;;;;;26.40;17.00;;;;;;;12.61;100.00;101540.50;5032619;28;20036;-86
2022/10/13 10:55:01;;;;;;;26.50;18.00;;;;;;;12.61;100.00;101535.06;5024546;28;20020;-86
2022/10/13 10:57:56;;;;;;;23.43;15.60;;;;;;;12.61;100.00;101540.50;5032847;28;20037;-87
2022/10/13 11:00:22;;;;;;;23.43;16.23;;;;;;;12.57;100.00;101538.41;5032703;28;20060;-87
2022/10/13 11:03:13;;;;;;;24.70;16.67;;;;;;;12.61;100.00;101536.97;5032018;28;20381;-87
2022/10/13 11:05:58;;;;;;;29.33;17.20;;;;;;;12.58;100.00;101537.34;5031420;28;20654;-86
2022/10/13 11:08:26;;;;;;;23.70;16.30;;;;;;;12.62;100.00;101536.75;5032684;28;20086;-87
2022/10/13 11:11:21;;;;;;;23.60;15.73;;;;;;;12.57;100.00;101516.69;5032781;28;20036;-87
2022/10/13 11:13:54;;;;;;;24.85;16.52;;;;;;;12.64;100.00;101534.63;5015513;28;20099;-87
2022/10/13 11:16:28;;;;;;;23.57;16.27;;;;;;;12.66;100.00;101521.69;5032657;28;20032;-88
2022/10/13 11:19:06;;;;;;;23.63;16.17;;;;;;;12.68;100.00;101526.91;5031870;28;20091;-87